createdAt,value
2017-09-06T05:08:43.478Z,56.4
2017-09-06T05:09:03.843Z,56.4
2017-09-06T05:10:04.223Z,56.3
2017-09-06T05:11:04.094Z,55.9
2017-09-06T05:12:03.924Z,56.2
2017-09-06T05:13:04.185Z,56.7
2017-09-06T05:14:35.579Z,55.8
2017-09-06T05:15:03.893Z,55.5
2017-09-06T05:16:03.739Z,55.6
2017-09-06T05:17:04.434Z,54.9
2017-09-06T05:18:05.272Z,55.3
2017-09-06T05:19:03.768Z,55.5
2017-09-06T05:20:29.078Z,54.9
2017-09-06T05:21:27.878Z,54.9
2017-09-06T05:22:04.265Z,55.2
2017-09-06T05:23:03.804Z,54.3
2017-09-06T05:25:04.136Z,53.9
2017-09-06T05:26:03.136Z,53.7
2017-09-06T05:27:04.043Z,53.5
2017-09-06T05:28:05.493Z,53.4
2017-09-06T05:29:04.061Z,53.1
2017-09-06T05:30:03.446Z,52.9
2017-09-06T05:31:03.286Z,52.6
2017-09-06T05:32:03.789Z,53
2017-09-06T05:33:03.062Z,53
2017-09-06T05:34:03.366Z,52.6
2017-09-06T05:35:03.543Z,52.7
2017-09-06T05:36:03.852Z,52.5
2017-09-06T05:37:03.381Z,52.6
2017-09-06T05:38:03.081Z,52.5
2017-09-06T05:39:03.810Z,52.2
2017-09-06T05:40:03.554Z,52.5
2017-09-06T05:41:03.619Z,52.6
2017-09-06T05:42:03.222Z,52.1
2017-09-06T05:43:02.911Z,51.8
2017-09-06T05:44:03.642Z,52.2
2017-09-06T05:45:03.110Z,52.2
2017-09-06T05:46:03.943Z,51.8
2017-09-06T05:47:03.749Z,51.7
2017-09-06T05:48:08.464Z,52
2017-09-06T05:49:03.258Z,52.3
2017-09-06T05:50:02.512Z,52.6
2017-09-06T05:51:03.281Z,51.8
2017-09-06T05:52:03.507Z,51.8
2017-09-06T05:53:03.694Z,51.9
2017-09-06T05:54:03.308Z,51.9
2017-09-06T05:55:03.527Z,51.8
2017-09-06T05:56:03.320Z,51.5
2017-09-06T05:57:03.637Z,51.2
2017-09-06T05:58:03.415Z,51.9
2017-09-06T05:59:03.171Z,51.9
2017-09-06T06:00:03.136Z,51.9
2017-09-06T06:01:03.196Z,51.2
2017-09-06T06:02:02.975Z,51.6
2017-09-06T06:03:02.899Z,51.5
2017-09-06T06:04:03.686Z,51.5
2017-09-06T06:05:03.523Z,51.3
2017-09-06T06:06:03.172Z,51.5
2017-09-06T06:07:03.119Z,51.9
2017-09-06T06:08:02.779Z,51.7
2017-09-06T06:09:03.442Z,51.2
2017-09-06T06:10:06.512Z,51.3
2017-09-06T06:13:49.540Z,51.4
2017-09-06T06:14:03.589Z,51.3
2017-09-06T06:15:09.339Z,50.8
2017-09-06T06:16:03.388Z,50.7
2017-09-06T06:17:03.269Z,50.4
2017-09-06T06:18:03.395Z,50.6
2017-09-06T06:19:03.649Z,50.9
2017-09-06T06:20:04.047Z,51
2017-09-06T06:21:03.620Z,51.8
2017-09-06T06:22:03.514Z,51.6
2017-09-06T06:23:03.619Z,51.4
2017-09-06T06:24:03.487Z,50.7
2017-09-06T06:25:03.428Z,50.6
2017-09-06T06:26:03.340Z,50.6
2017-09-06T06:27:02.992Z,50.9
2017-09-06T06:28:04.063Z,50.9
2017-09-06T06:29:02.966Z,50.6
2017-09-06T06:30:03.349Z,50.9
2017-09-06T06:31:02.615Z,50.8
2017-09-06T06:32:03.423Z,50.5
2017-09-06T06:33:02.676Z,50.9
2017-09-06T06:34:03.371Z,51
2017-09-06T06:35:03.237Z,51
2017-09-06T06:36:02.918Z,50.5
2017-09-06T06:37:03.378Z,50.4
2017-09-06T06:38:03.379Z,50.4
2017-09-06T06:39:02.895Z,50.2
2017-09-06T08:43:28.696Z,53.6
2017-09-06T08:44:03.774Z,53.6
2017-09-06T08:45:04.370Z,53
2017-09-06T08:46:03.869Z,52.5
2017-09-06T08:47:04.151Z,52
2017-09-06T08:48:04.816Z,52.2
2017-09-06T08:49:03.856Z,51.6
2017-09-06T08:50:03.767Z,51.2
2017-09-06T08:51:03.985Z,51.2
2017-09-06T08:52:03.158Z,51
2017-09-06T08:53:03.322Z,50.4
2017-09-06T08:54:03.072Z,50.3
2017-09-06T08:55:03.495Z,50
2017-09-06T09:01:47.855Z,50.9
2017-09-06T09:02:03.258Z,51.6
2017-09-06T09:03:03.886Z,52
2017-09-06T09:04:03.589Z,52.2
2017-09-06T09:05:04.083Z,52.4
2017-09-06T09:06:03.301Z,51.6
2017-09-06T09:07:03.859Z,51.2
2017-09-06T09:08:03.723Z,51.1
2017-09-06T09:09:03.797Z,50.2
2017-09-06T09:10:03.200Z,50.3
2017-09-06T09:11:03.429Z,52.2
2017-09-06T09:12:03.447Z,51.1
2017-09-06T09:13:03.560Z,51.2
2017-09-06T09:14:03.227Z,51.3
2017-09-06T09:15:02.862Z,50.2
2017-09-06T09:16:03.907Z,49.8
2017-09-06T09:17:03.510Z,50.1
2017-09-06T09:18:03.855Z,50.4
2017-09-06T09:19:03.843Z,50.3
2017-09-06T09:20:03.799Z,50.2
2017-09-06T09:21:04.168Z,49.9
2017-09-06T09:22:04.018Z,49.5
2017-09-06T09:23:03.838Z,48.1
2017-09-06T09:24:03.173Z,48.1
2017-09-06T09:25:03.498Z,49.2
2017-09-06T09:26:03.377Z,49.2
2017-09-06T09:27:03.277Z,48.9
2017-09-06T09:28:04.150Z,49.3
2017-09-06T09:29:04.093Z,48.5
2017-09-06T09:30:03.514Z,48.7
2017-09-06T09:31:03.372Z,48.2
2017-09-06T09:32:03.491Z,47.9
2017-09-06T09:33:03.176Z,47.1
2017-09-06T09:34:04.321Z,47.5
2017-09-06T09:35:04.423Z,46.7
2017-09-06T09:36:03.925Z,47
2017-09-06T09:37:04.223Z,47.3
2017-09-06T09:38:03.651Z,46.6
2017-09-06T09:39:03.281Z,46.7
2017-09-06T09:40:03.718Z,46.7
2017-09-06T09:41:03.178Z,46.7
2017-09-06T09:42:04.147Z,47.1
2017-09-06T09:43:03.425Z,47.4
2017-09-06T09:44:03.130Z,47.3
2017-09-06T09:45:03.871Z,47.1
2017-09-06T09:46:03.936Z,46.5
2017-09-06T09:47:03.066Z,47
2017-09-06T09:48:03.472Z,47
2017-09-06T09:49:03.302Z,47.3
2017-09-06T09:50:07.502Z,46.8
2017-09-06T09:51:03.130Z,46.5
2017-09-06T09:52:03.402Z,45.3
2017-09-06T09:53:04.322Z,45.9
2017-09-06T09:54:03.395Z,46.1
2017-09-06T09:55:03.879Z,46.6
2017-09-06T09:56:03.295Z,46.5
2017-09-06T09:57:04.142Z,46.7
2017-09-06T09:58:03.752Z,46.8
2017-09-06T09:59:03.371Z,46.3
2017-09-06T10:00:03.016Z,46
2017-09-06T10:01:03.244Z,44.9
2017-09-06T10:02:03.085Z,44.7
2017-09-06T10:03:04.272Z,45.3
2017-09-06T10:04:02.871Z,45.4
2017-09-06T10:05:03.964Z,45.1
2017-09-06T10:06:03.218Z,45.4
2017-09-06T10:07:03.369Z,45
2017-09-06T10:08:03.434Z,45
2017-09-06T10:09:02.942Z,46.3
2017-09-06T10:10:02.773Z,46.6
2017-09-06T10:11:03.464Z,46.8
2017-09-06T10:12:03.086Z,46.5
2017-09-06T10:13:02.807Z,46.4
2017-09-06T13:28:26.448Z,50.4
2017-09-06T13:29:03.671Z,51.3
2017-09-06T13:30:03.188Z,49.5
2017-09-06T13:31:08.917Z,50.7
2017-09-06T13:32:03.591Z,50
2017-09-06T13:33:02.819Z,49.7
2017-09-06T13:34:35.522Z,49.3
2017-09-06T13:35:03.343Z,49
2017-09-06T13:36:03.227Z,49
2017-09-06T13:37:02.923Z,48.7
2017-09-06T13:38:04.003Z,48.3
2017-09-06T13:39:03.570Z,48.1
2017-09-06T13:40:02.826Z,47.9
2017-09-06T13:41:03.093Z,47.6
2017-09-06T13:42:03.525Z,47.6
2017-09-06T13:43:03.773Z,47.5
2017-09-06T13:44:03.238Z,47.3
2017-09-06T13:45:03.093Z,47.1
2017-09-06T13:46:02.937Z,47.2
2017-09-06T13:47:03.560Z,47
2017-09-06T13:48:03.398Z,46.8
2017-09-06T13:49:02.814Z,46.6
2017-09-06T13:50:04.196Z,46.4
2017-09-06T13:51:02.841Z,46.3
2017-09-06T13:52:03.691Z,46.1
2017-09-06T13:53:03.604Z,46
2017-09-06T13:54:03.096Z,45.8
2017-09-06T13:55:02.522Z,45.8
2017-09-06T13:56:03.240Z,45.9
2017-09-06T13:57:03.119Z,45.5
2017-09-06T13:58:02.961Z,45.2
2017-09-06T13:59:03.872Z,45.2
2017-09-06T14:00:02.863Z,45.2
2017-09-06T14:01:02.623Z,44.9
2017-09-06T14:02:03.441Z,44.8
2017-09-06T14:03:16.230Z,45.1
2017-09-06T14:04:27.499Z,44.6
2017-09-06T14:05:05.662Z,44.5
2017-09-06T14:06:02.481Z,44.3
2017-09-06T14:07:02.413Z,44.5
2017-09-06T14:08:03.055Z,44.6
2017-09-06T14:09:02.401Z,44.4
2017-09-06T14:10:03.275Z,44.4
2017-09-06T14:11:03.138Z,44.2
2017-09-06T14:12:02.901Z,44.2
2017-09-06T14:13:06.428Z,44.2
2017-09-06T14:14:02.909Z,43.9
2017-09-06T14:15:02.856Z,43.9
2017-09-06T14:16:02.300Z,43.9
2017-09-06T14:17:02.695Z,43.8
2017-09-06T14:18:02.211Z,43.7
2017-09-06T14:19:03.130Z,43.9
2017-09-06T14:20:03.012Z,43.9
2017-09-06T14:21:02.936Z,43.5
2017-09-06T14:22:02.592Z,43.4
2017-09-06T14:23:02.090Z,43.5
2017-09-06T14:24:02.533Z,43.4
2017-09-06T14:25:02.432Z,43.8
2017-09-06T14:26:03.552Z,43.7
2017-09-06T14:27:02.397Z,43.7
2017-09-06T14:28:03.224Z,43.7
2017-09-06T14:29:02.718Z,43.7
2017-09-06T14:30:02.539Z,43.7
2017-09-06T14:31:02.170Z,43.6
2017-09-06T14:32:02.417Z,43.7
2017-09-06T14:33:09.422Z,43.4
2017-09-06T14:34:03.079Z,43.4
2017-09-06T14:35:02.720Z,43.6
2017-09-06T14:36:02.356Z,43.4
2017-09-06T14:37:02.757Z,43.5
2017-09-06T14:38:02.621Z,43.8
